Time;durP1;ratioP1;P1;durP2;ratioP2;P2;SDS_P1;SDS_P2;PMS_P1;PMS_P2;Temp;Humidity;BMP_temperature;BMP_pressure;BME280_temperature;BME280_humidity;BME280_pressure;Samples;Min_cycle;Max_cycle;Signal;HPM_P1;HPM_P2
2021/04/25 00:23:53;;;;;;;14.38;7.00;;;6.70;74.00;;;;;;6127895;22;20009;-93
2021/04/25 00:33:32;;;;;;;;;;;;;;;;;;;;;
2021/04/25 00:36:29;;;;;;;9.10;6.18;;;6.80;73.90;;;;;;6245841;22;20075;-93
2021/04/25 00:39:18;;;;;;;;;;;;;;;;;;;;;
2021/04/25 00:42:00;;;;;;;12.68;6.35;;;6.90;73.60;;;;;;6246656;23;20091;-93
2021/04/25 00:44:57;;;;;;;13.25;6.70;;;6.90;74.10;;;;;;6247583;23;20008;-93
2021/04/25 00:51:16;;;;;;;9.35;5.55;;;6.90;73.20;;;;;;6227447;23;20008;-94
2021/04/25 00:54:07;;;;;;;9.82;5.32;;;6.90;73.00;;;;;;6245202;23;20189;-93
2021/04/25 00:57:21;;;;;;;10.20;5.45;;;6.90;72.70;;;;;;6222792;23;20004;-93
2021/04/25 01:00:22;;;;;;;;;;;;;;;;;;;;;
2021/04/25 01:03:06;;;;;;;;;;;;;;;;;;;;;
2021/04/25 01:06:04;;;;;;;7.28;5.30;;;6.90;72.60;;;;;;6247871;23;20075;-94
2021/04/25 01:08:41;;;;;;;8.40;5.22;;;6.90;72.70;;;;;;6245452;23;20426;-93
2021/04/25 01:11:42;;;;;;;;;;;;;;;;;;;;;
2021/04/25 01:14:50;;;;;;;;;;;;;;;;;;;;;
2021/04/25 01:24:57;;;;;;;;;;;;;;;;;;;;;
2021/04/25 01:27:32;;;;;;;8.55;4.55;;;6.60;72.80;;;;;;6246759;22;20083;-93
2021/04/25 01:33:28;;;;;;;11.50;4.55;;;6.50;72.50;;;;;;6223897;22;20006;-93
2021/04/25 01:36:02;;;;;;;8.93;5.07;;;6.50;72.60;;;;;;6243979;23;20033;-93
2021/04/25 01:39:01;;;;;;;7.63;4.35;;;6.50;72.40;;;;;;6245737;23;20008;-94
2021/04/25 01:44:35;;;;;;;11.48;4.28;;;6.50;72.00;;;;;;6245715;23;20093;-93
2021/04/25 01:47:29;;;;;;;10.13;4.22;;;6.40;71.80;;;;;;6220655;23;20000;-94
2021/04/25 01:50:13;;;;;;;9.90;4.25;;;6.30;71.70;;;;;;6229051;23;20004;-93
2021/04/25 01:52:57;;;;;;;8.07;4.43;;;6.30;71.90;;;;;;6245730;23;20426;-93
2021/04/25 01:56:06;;;;;;;9.82;3.85;;;6.30;72.00;;;;;;6222365;23;20036;-94
2021/04/25 01:58:57;;;;;;;8.50;4.35;;;6.20;71.90;;;;;;6224518;23;20427;-94
2021/04/25 02:05:22;;;;;;;9.00;3.70;;;6.10;71.80;;;;;;6240061;22;20055;-93
2021/04/25 02:07:42;;;;;;;;;;;;;;;;;;;;;
2021/04/25 02:10:38;;;;;;;9.73;3.90;;;6.10;71.90;;;;;;6244652;23;20079;-93
2021/04/25 02:13:07;;;;;;;10.27;3.85;;;6.10;71.70;;;;;;6244903;23;20062;-93
2021/04/25 02:15:38;;;;;;;6.80;4.00;;;6.00;71.60;;;;;;6220690;23;20000;-94
2021/04/25 02:18:25;;;;;;;;;;;;;;;;;;;;;
2021/04/25 02:21:18;;;;;;;8.18;3.58;;;6.00;71.70;;;;;;6247305;22;20079;-93
2021/04/25 02:23:54;;;;;;;7.30;3.92;;;5.90;71.70;;;;;;6246162;23;20031;-93
2021/04/25 02:26:46;;;;;;;6.50;3.80;;;5.90;71.60;;;;;;6221303;23;20024;-93
2021/04/25 02:29:24;;;;;;;;;;;;;;;;;;;;;
2021/04/25 02:32:18;;;;;;;6.30;3.50;;;5.90;71.50;;;;;;6247475;23;20083;-93
2021/04/25 02:34:52;;;;;;;8.23;3.90;;;5.90;71.40;;;;;;6245276;23;20004;-93
2021/04/25 02:38:07;;;;;;;10.30;3.83;;;5.90;71.50;;;;;;6245476;23;20022;-94
2021/04/25 02:40:45;;;;;;;8.27;4.00;;;5.90;71.40;;;;;;6244413;23;20024;-95
2021/04/25 02:43:26;;;;;;;7.70;3.95;;;5.90;71.40;;;;;;6246084;23;20000;-94
2021/04/25 02:49:22;;;;;;;;;;;;;;;;;;;;;
2021/04/25 02:52:29;;;;;;;;;;;;;;;;;;;;;
2021/04/25 02:55:01;;;;;;;6.68;3.45;;;5.70;71.20;;;;;;6247130;23;20494;-94
2021/04/25 02:57:43;;;;;;;6.43;3.42;;;5.70;71.10;;;;;;6245835;23;20071;-94
2021/04/25 03:00:38;;;;;;;9.05;3.85;;;5.70;70.90;;;;;;6244644;23;20384;-93
2021/04/25 03:03:24;;;;;;;6.13;3.55;;;5.70;70.70;;;;;;6229664;23;20001;-94
2021/04/25 03:06:40;;;;;;;;;;;;;;;;;;;;;
2021/04/25 03:09:18;;;;;;;7.32;3.67;;;5.70;70.60;;;;;;6248105;23;20075;-94
2021/04/25 03:12:07;;;;;;;7.68;3.40;;;5.70;70.60;;;;;;6247100;23;20007;-93
2021/04/25 03:19:14;;;;;;;;;;;;;;;;;;;;;
2021/04/25 03:21:22;;;;;;;10.40;3.67;;;5.60;70.20;;;;;;6238403;22;20005;-94
2021/04/25 03:23:58;;;;;;;;;;;;;;;;;;;;;
2021/04/25 03:26:34;;;;;;;8.45;3.45;;;5.70;70.30;;;;;;6247556;23;20075;-94
2021/04/25 03:29:12;;;;;;;;;;;;;;;;;;;;;
2021/04/25 03:31:38;;;;;;;7.72;3.30;;;5.70;70.30;;;;;;6248309;23;20079;-94
2021/04/25 03:34:37;;;;;;;6.07;3.08;;;5.70;70.20;;;;;;6247967;23;20024;-94
2021/04/25 03:37:35;;;;;;;5.30;2.88;;;5.70;70.30;;;;;;6225542;23;20008;-92
2021/04/25 03:40:21;;;;;;;;;;;;;;;;;;;;;
2021/04/25 03:43:26;;;;;;;;;;;;;;;;;;;;;
2021/04/25 03:46:14;;;;;;;;;;;;;;;;;;;;;
2021/04/25 03:49:10;;;;;;;;;;;;;;;;;;;;;
2021/04/25 03:52:26;;;;;;;;;;;;;;;;;;;;;
2021/04/25 03:55:00;;;;;;;7.30;3.33;;;5.90;69.90;;;;;;6247265;23;20548;-94
2021/04/25 03:57:31;;;;;;;6.18;2.92;;;5.90;69.70;;;;;;6222128;23;20095;-93
2021/04/25 04:00:21;;;;;;;6.43;3.20;;;5.80;69.60;;;;;;6197064;23;20017;-94
2021/04/25 04:03:18;;;;;;;7.05;2.63;;;5.90;69.60;;;;;;6246905;23;20008;-93
2021/04/25 04:06:41;;;;;;;4.03;2.47;;;5.90;69.80;;;;;;6211913;23;20042;-94
2021/04/25 04:09:17;;;;;;;6.70;2.95;;;5.90;69.90;;;;;;6245835;23;20007;-91
2021/04/25 04:11:54;;;;;;;9.82;2.70;;;6.00;69.80;;;;;;6247514;23;20012;-94
2021/04/25 04:14:30;;;;;;;;;;;;;;;;;;;;;
2021/04/25 04:17:16;;;;;;;4.75;2.78;;;6.00;69.60;;;;;;6246481;23;20076;-95
2021/04/25 04:21:15;;;;;;;;;;;;;;;;;;;;;
2021/04/25 04:23:20;;;;;;;5.45;2.50;;;6.00;69.40;;;;;;6196046;22;20044;-94
2021/04/25 04:25:56;;;;;;;6.18;2.60;;;6.00;69.50;;;;;;6246005;23;20000;-95
2021/04/25 04:29:10;;;;;;;;;;;;;;;;;;;;;
2021/04/25 04:31:39;;;;;;;8.65;3.05;;;6.10;69.30;;;;;;6247596;23;20088;-93
2021/04/25 04:34:25;;;;;;;6.07;2.47;;;6.10;69.20;;;;;;6245894;23;20423;-94
2021/04/25 04:36:56;;;;;;;6.97;2.53;;;6.10;69.00;;;;;;6244330;22;20027;-94
2021/04/25 04:39:43;;;;;;;11.77;3.08;;;6.10;69.00;;;;;;6245620;23;20011;-94
2021/04/25 04:42:14;;;;;;;6.35;2.60;;;6.10;68.80;;;;;;6169783;23;20099;-94
2021/04/25 04:45:13;;;;;;;5.85;2.88;;;6.10;68.70;;;;;;6191458;23;20411;-93
2021/04/25 04:48:01;;;;;;;;;;;;;;;;;;;;;
2021/04/25 04:51:21;;;;;;;;;;;;;;;;;;;;;
2021/04/25 04:54:06;;;;;;;8.45;2.17;;;6.10;68.20;;;;;;6208016;23;20411;-94
2021/04/25 04:57:29;;;;;;;;;;;;;;;;;;;;;
2021/04/25 05:00:35;;;;;;;7.03;2.05;;;6.00;67.40;;;;;;6199867;23;20099;-93
2021/04/25 05:03:16;;;;;;;;;;;;;;;;;;;;;
2021/04/25 05:12:12;;;;;;;;;;;;;;;;;;;;;
2021/04/25 05:15:32;;;;;;;4.30;1.83;;;6.10;67.30;;;;;;6196768;23;20462;-93
2021/04/25 05:18:23;;;;;;;6.35;2.42;;;6.10;67.40;;;;;;6190193;23;20066;-93
2021/04/25 05:21:15;;;;;;;6.10;2.20;;;6.20;67.20;;;;;;6166667;23;20004;-93
2021/04/25 05:24:13;;;;;;;;;;;;;;;;;;;;;
2021/04/25 05:27:04;;;;;;;;;;;;;;;;;;;;;
2021/04/25 05:32:49;;;;;;;4.15;1.95;;;6.20;66.90;;;;;;6217063;23;20001;-94
2021/04/25 05:35:19;;;;;;;6.75;2.72;;;6.20;66.70;;;;;;6190342;23;20014;-92
2021/04/25 05:37:58;;;;;;;6.70;2.60;;;6.20;66.60;;;;;;6166231;23;20063;-93
2021/04/25 05:40:34;;;;;;;6.68;2.20;;;6.20;66.50;;;;;;6205069;23;20090;-94
2021/04/25 05:43:28;;;;;;;4.47;1.77;;;6.20;66.60;;;;;;6246743;23;19996;-94
2021/04/25 05:45:55;;;;;;;7.28;2.22;;;6.20;66.70;;;;;;6248116;22;20009;-93
2021/04/25 05:49:07;;;;;;;;;;;;;;;;;;;;;
2021/04/25 05:51:50;;;;;;;6.13;1.80;;;6.30;66.70;;;;;;6241758;22;20016;-94
2021/04/25 05:54:53;;;;;;;;;;;;;;;;;;;;;
2021/04/25 06:01:05;;;;;;;7.20;2.40;;;6.30;66.50;;;;;;6243350;22;20008;-95
2021/04/25 06:03:36;;;;;;;7.65;2.05;;;6.30;66.50;;;;;;6231773;23;20013;-94
2021/04/25 06:06:42;;;;;;;6.47;2.40;;;6.40;66.80;;;;;;6225397;23;20010;-94
2021/04/25 06:12:15;;;;;;;;;;;6.40;66.80;;;;;;6237577;23;20450;-94
2021/04/25 06:15:24;;;;;;;4.10;2.08;;;6.40;66.60;;;;;;6210938;23;20211;-94
2021/04/25 06:18:32;;;;;;;;;;;;;;;;;;;;;
2021/04/25 06:21:42;;;;;;;;;;;;;;;;;;;;;
2021/04/25 06:24:26;;;;;;;7.85;2.58;;;6.50;66.70;;;;;;6240351;23;20087;-93
2021/04/25 06:27:15;;;;;;;;;;;;;;;;;;;;;
2021/04/25 06:30:04;;;;;;;5.15;2.30;;;6.50;66.50;;;;;;6246829;23;20139;-94
2021/04/25 06:33:16;;;;;;;9.23;2.67;;;6.50;66.20;;;;;;6246408;23;20001;-94
2021/04/25 06:35:54;;;;;;;8.85;2.63;;;6.50;65.90;;;;;;6245900;23;20331;-94
2021/04/25 06:38:30;;;;;;;7.68;2.22;;;6.50;65.80;;;;;;6247158;23;20004;-94
2021/04/25 06:42:08;;;;;;;;;;;;;;;;;;;;;
2021/04/25 06:44:16;;;;;;;8.13;2.00;;;6.50;65.50;;;;;;6236541;23;20016;-95
2021/04/25 06:46:54;;;;;;;10.05;2.30;;;6.50;65.70;;;;;;6247933;23;20150;-94
2021/04/25 06:49:35;;;;;;;;;;;;;;;;;;;;;
2021/04/25 06:55:40;;;;;;;4.45;1.67;;;6.60;65.70;;;;;;6249167;23;19954;-93
2021/04/25 06:58:14;;;;;;;6.72;1.55;;;6.60;65.80;;;;;;6247491;23;20066;-94
2021/04/25 07:00:59;;;;;;;5.45;2.00;;;6.70;66.10;;;;;;6224669;23;20001;-93
2021/04/25 07:03:37;;;;;;;;;;;;;;;;;;;;;
2021/04/25 07:06:41;;;;;;;6.85;2.00;;;6.80;66.00;;;;;;6253109;23;20023;-94
2021/04/25 07:09:23;;;;;;;4.93;1.73;;;6.90;66.10;;;;;;6226978;23;20090;-93
2021/04/25 07:12:14;;;;;;;6.57;1.80;;;6.90;65.20;;;;;;6222256;23;20087;-93
2021/04/25 07:14:48;;;;;;;5.50;1.80;;;7.00;65.30;;;;;;6245465;23;20349;-94
2021/04/25 07:18:18;;;;;;;;;;;;;;;;;;;;;
2021/04/25 07:21:28;;;;;;;7.00;1.58;;;7.00;64.80;;;;;;6238200;23;20016;-92
2021/04/25 07:24:08;;;;;;;7.30;1.90;;;7.10;64.90;;;;;;6243342;23;20040;-91
2021/04/25 07:36:26;;;;;;;6.22;1.90;;;7.20;63.20;;;;;;6158382;23;20092;-91
2021/04/25 07:39:22;;;;;;;;;;;;;;;;;;;;;
2021/04/25 07:45:24;;;;;;;;;;;;;;;;;;;;;
2021/04/25 07:54:58;;;;;;;5.10;1.50;;;7.40;64.00;;;;;;6164074;23;20021;-95
2021/04/25 07:58:20;;;;;;;;;;;;;;;;;;;;;
2021/04/25 08:01:20;;;;;;;7.70;1.65;;;7.40;63.50;;;;;;6184428;23;20808;-94
2021/04/25 08:04:24;;;;;;;3.28;1.63;;;7.40;63.60;;;;;;6141079;23;20009;-94
2021/04/25 08:07:51;;;;;;;;;;;;;;;;;;;;;
2021/04/25 08:11:13;;;;;;;;;;;;;;;;;;;;;
2021/04/25 08:13:54;;;;;;;7.25;2.13;;;7.50;63.20;;;;;;6242347;23;20079;-94
2021/04/25 08:16:53;;;;;;;;;;;;;;;;;;;;;
2021/04/25 08:27:18;;;;;;;8.48;1.67;;;7.70;63.60;;;;;;6093186;23;20360;-95
2021/04/25 08:30:46;;;;;;;;;;;;;;;;;;;;;
2021/04/25 08:34:24;;;;;;;;;;;;;;;;;;;;;
2021/04/25 10:09:55;;;;;;;6.30;1.85;;;9.60;58.60;;;;;;6031191;23;20016;-94
2021/04/25 10:27:02;;;;;;;;;;;;;;;;;;;;;
2021/04/25 10:33:48;;;;;;;7.85;1.58;;;9.80;57.00;;;;;;6201432;23;20044;-92
2021/04/25 11:05:52;;;;;;;;;;;;;;;;;;;;;
2021/04/25 11:09:04;;;;;;;6.05;1.88;;;10.00;56.10;;;;;;5895203;24;20512;-94
2021/04/25 12:53:25;;;;;;;;;;;;;;;;;;;;;
2021/04/25 12:56:53;;;;;;;;;;;;;;;;;;;;;
2021/04/25 13:53:37;;;;;;;;;;;;;;;;;;;;;
2021/04/25 14:04:30;;;;;;;;;;;;;;;;;;;;;
2021/04/25 14:25:21;;;;;;;;;;;;;;;;;;;;;
2021/04/25 14:28:20;;;;;;;;;;;;;;;;;;;;;
2021/04/25 14:31:52;;;;;;;5.95;1.50;;;12.10;49.40;;;;;;6055924;23;20082;-93
2021/04/25 14:52:14;;;;;;;;;;;;;;;;;;;;;
2021/04/25 15:13:10;;;;;;;6.80;2.15;;;12.60;49.10;;;;;;6138340;23;20036;-94
2021/04/25 20:38:51;;;;;;;;;;;;;;;;;;;;;
2021/04/25 22:10:22;;;;;;;;;;;;;;;;;;;;;
2021/04/25 23:00:13;;;;;;;;;;;;;;;;;;;;;
2021/04/25 23:06:35;;;;;;;;;;;;;;;;;;;;;
2021/04/25 23:17:19;;;;;;;;;;;;;;;;;;;;;
2021/04/25 23:51:59;;;;;;;;;;;;;;;;;;;;;
